Time;durP1;ratioP1;P1;durP2;ratioP2;P2;SDS_P1;SDS_P2;PMS_P1;PMS_P2;Temp;Humidity;BMP_temperature;BMP_pressure;BME280_temperature;BME280_humidity;BME280_pressure;Samples;Min_cycle;Max_cycle;Signal;HPM_P1;HPM_P2
2021/03/11 00:01:12;;;;;;;31.35;17.95;;;8.60;88.50;;;8.19;76.66;99378.47;5048429;28;20546;-83
2021/03/11 00:03:38;;;;;;;30.55;17.75;;;8.60;88.00;;;8.18;76.56;99371.38;5048078;28;20555;-83
2021/03/11 00:06:08;;;;;;;29.15;16.80;;;8.70;87.90;;;8.05;76.12;99370.44;5050663;28;20477;-83
2021/03/11 00:08:35;;;;;;;28.98;17.55;;;8.70;87.40;;;8.10;76.79;99355.25;5049812;28;20045;-83
2021/03/11 00:11:06;;;;;;;29.83;17.30;;;8.70;87.80;;;8.15;75.80;99366.34;5051579;28;20049;-83
2021/03/11 00:13:33;;;;;;;31.83;17.67;;;8.70;87.50;;;8.15;75.99;99360.94;5049108;28;20088;-83
2021/03/11 00:16:00;;;;;;;30.02;16.88;;;8.70;87.30;;;8.11;76.04;99356.94;5050121;28;20626;-83
2021/03/11 00:18:27;;;;;;;33.67;18.48;;;8.70;87.10;;;8.15;76.29;99349.25;5049201;28;20112;-83
2021/03/11 00:20:54;;;;;;;30.75;17.67;;;8.70;87.50;;;8.13;76.16;99344.03;5048421;28;20049;-83
2021/03/11 00:23:21;;;;;;;27.77;16.92;;;8.70;87.60;;;8.12;75.65;99345.06;5048654;28;20045;-83
2021/03/11 00:25:48;;;;;;;30.25;17.58;;;8.70;87.40;;;8.23;75.64;99346.41;5049620;28;20056;-83
2021/03/11 00:28:16;;;;;;;30.50;17.02;;;8.70;87.50;;;8.28;75.80;99340.38;5050437;28;20040;-84
2021/03/11 00:30:45;;;;;;;30.05;17.10;;;8.70;87.70;;;8.26;75.53;99343.25;5050057;28;20115;-83
2021/03/11 00:33:12;;;;;;;30.02;17.38;;;8.70;87.50;;;8.21;75.88;99354.72;5048875;28;20053;-83
2021/03/11 00:35:39;;;;;;;28.27;16.70;;;8.70;87.00;;;8.16;75.82;99351.75;5048024;28;20040;-83
2021/03/11 00:38:06;;;;;;;27.90;16.40;;;8.80;86.90;;;8.17;75.56;99345.31;5051839;28;20106;-83
2021/03/11 00:40:33;;;;;;;32.70;17.35;;;8.70;86.90;;;8.21;75.87;99335.75;5048512;28;20056;-83
2021/03/11 00:43:00;;;;;;;29.55;17.52;;;8.70;87.20;;;8.23;75.63;99352.66;5049034;28;20071;-84
2021/03/11 00:45:28;;;;;;;29.58;16.25;;;8.70;87.40;;;8.31;75.65;99334.56;5050109;28;20088;-83
2021/03/11 00:47:55;;;;;;;30.30;16.65;;;8.70;87.90;;;8.20;76.24;99336.75;5049933;28;20083;-83
2021/03/11 00:50:23;;;;;;;27.40;15.52;;;8.70;88.30;;;8.17;76.85;99323.63;5049618;28;20057;-83
2021/03/11 00:52:50;;;;;;;32.13;17.42;;;8.70;88.50;;;8.13;77.91;99319.66;5039621;28;20554;-83
2021/03/11 00:55:20;;;;;;;28.67;17.30;;;8.70;89.00;;;8.13;77.83;99314.22;5047135;28;20408;-83
2021/03/11 00:57:48;;;;;;;30.52;17.63;;;8.70;89.40;;;8.11;78.13;99313.59;5048578;28;20056;-83
2021/03/11 01:00:21;;;;;;;29.70;16.13;;;8.70;89.80;;;8.15;78.27;99312.16;5047844;28;20171;-83
2021/03/11 01:03:12;;;;;;;33.63;19.13;;;8.60;90.00;;;8.12;78.46;99300.88;5041152;28;20073;-83
2021/03/11 01:05:52;;;;;;;32.47;17.75;;;8.60;90.40;;;8.15;78.88;99285.06;5047713;28;20045;-83
2021/03/11 01:08:27;;;;;;;32.88;17.60;;;8.60;90.50;;;8.06;79.06;99283.53;5047367;28;20057;-83
2021/03/11 01:10:54;;;;;;;28.83;16.25;;;8.60;90.80;;;8.03;79.55;99282.06;5049750;28;20053;-83
2021/03/11 01:13:21;;;;;;;29.25;16.38;;;8.60;90.90;;;8.03;79.30;99281.22;5044886;28;20049;-83
2021/03/11 01:15:48;;;;;;;30.73;17.05;;;8.60;91.10;;;8.09;79.67;99274.16;5045798;28;20053;-83
2021/03/11 01:18:16;;;;;;;34.50;18.27;;;8.60;91.20;;;8.09;79.54;99269.59;5050549;28;20041;-83
2021/03/11 01:20:43;;;;;;;31.17;18.02;;;8.50;91.30;;;8.07;79.57;99259.97;5048524;28;20518;-83
2021/03/11 01:23:10;;;;;;;32.35;18.40;;;8.50;91.40;;;8.06;79.54;99242.88;5048395;28;20056;-83
2021/03/11 01:25:37;;;;;;;34.25;18.58;;;8.60;91.30;;;8.08;80.10;99243.53;5050258;28;20048;-83
2021/03/11 01:28:05;;;;;;;31.38;18.10;;;8.50;91.70;;;8.07;80.11;99243.72;5033991;28;20932;-83
2021/03/11 01:30:31;;;;;;;34.60;18.20;;;8.50;91.90;;;8.08;80.31;99234.56;5050779;28;20057;-83
2021/03/11 01:32:58;;;;;;;31.23;16.70;;;8.50;91.80;;;8.12;79.81;99231.25;5046998;28;20542;-83
2021/03/11 01:35:27;;;;;;;30.55;17.33;;;8.50;92.00;;;8.11;80.22;99224.16;5048380;28;20037;-83
2021/03/11 01:37:54;;;;;;;30.13;17.25;;;8.50;91.90;;;8.10;80.00;99221.66;5048068;28;20935;-83
2021/03/11 01:40:21;;;;;;;33.05;18.35;;;8.50;92.00;;;8.15;79.67;99222.72;5049141;28;20052;-83
2021/03/11 01:42:48;;;;;;;35.53;17.73;;;8.50;92.30;;;8.17;80.11;99211.69;5049674;28;20037;-83
2021/03/11 01:45:17;;;;;;;30.40;15.98;;;8.50;92.40;;;8.17;79.56;99193.56;5050514;28;20056;-83
2021/03/11 01:47:44;;;;;;;30.40;16.80;;;8.50;92.50;;;8.19;79.78;99183.34;5048500;28;20049;-83
2021/03/11 01:50:13;;;;;;;32.40;17.52;;;8.50;92.30;;;8.17;79.31;99182.72;5050671;28;20041;-83
2021/03/11 01:52:41;;;;;;;29.85;15.75;;;8.50;92.20;;;8.21;79.40;99175.00;5049877;28;20045;-83
2021/03/11 01:55:10;;;;;;;31.67;16.35;;;8.50;92.00;;;8.22;79.44;99163.97;5047970;28;20044;-83
2021/03/11 01:57:37;;;;;;;31.20;15.48;;;8.50;92.10;;;8.19;78.97;99172.50;5049142;28;20052;-83
2021/03/11 02:00:08;;;;;;;26.13;15.65;;;8.60;91.80;;;8.20;78.99;99168.75;5040265;28;20958;-83
2021/03/11 02:02:42;;;;;;;29.33;16.02;;;8.60;91.60;;;8.10;79.02;99162.03;5049177;28;20052;-83
2021/03/11 02:05:12;;;;;;;29.77;15.80;;;8.60;91.00;;;8.17;78.98;99163.75;5051635;28;20057;-83
2021/03/11 02:07:40;;;;;;;34.78;16.58;;;8.60;91.00;;;8.18;78.82;99143.72;5051361;28;20503;-83
2021/03/11 02:10:10;;;;;;;29.08;15.52;;;8.60;90.90;;;8.23;78.73;99146.66;5053437;28;20087;-83
2021/03/11 02:12:46;;;;;;;29.80;15.10;;;8.60;90.90;;;8.21;78.78;99132.47;5053112;28;20037;-83
2021/03/11 02:15:20;;;;;;;25.80;14.02;;;8.70;90.60;;;8.25;78.55;99122.06;5031818;28;20108;-83
2021/03/11 02:17:54;;;;;;;24.85;14.32;;;8.70;90.30;;;8.23;78.59;99111.44;5028865;28;20044;-83
2021/03/11 02:20:49;;;;;;;25.63;14.13;;;8.70;90.20;;;8.29;77.79;99095.41;5036138;28;20101;-84
2021/03/11 02:24:00;;;;;;;25.25;14.63;;;8.70;90.20;;;8.34;77.56;99082.03;5050931;28;20091;-83
2021/03/11 02:26:50;;;;;;;;;;;8.70;90.10;;;8.26;77.50;99076.81;5047672;28;20115;-83
2021/03/11 02:29:21;;;;;;;23.75;13.30;;;8.80;89.80;;;8.29;77.75;99068.28;5050749;28;19920;-83
2021/03/11 02:31:48;;;;;;;;;;;8.70;90.00;;;8.29;77.86;99069.13;5036172;28;20048;-83
2021/03/11 02:34:20;;;;;;;23.00;12.40;;;8.70;89.80;;;8.25;77.78;99072.47;5050665;28;19925;-83
2021/03/11 02:36:52;;;;;;;23.52;12.98;;;8.70;89.60;;;8.21;77.66;99069.31;5019647;28;20049;-83
2021/03/11 02:39:23;;;;;;;19.85;11.30;;;8.80;89.10;;;8.26;77.26;99052.44;5034095;28;20053;-83
2021/03/11 02:41:53;;;;;;;19.33;11.35;;;8.80;89.30;;;8.22;77.21;99039.31;5048237;28;20352;-83
2021/03/11 02:44:22;;;;;;;17.27;10.45;;;8.80;88.80;;;8.29;77.25;99033.06;5051447;28;20049;-83
2021/03/11 02:46:51;;;;;;;16.52;8.88;;;8.80;88.70;;;8.32;77.08;99030.78;5051366;28;20680;-83
2021/03/11 02:49:21;;;;;;;18.35;10.52;;;8.90;88.90;;;8.36;77.32;99025.78;5050860;28;20079;-83
2021/03/11 02:51:49;;;;;;;16.20;8.18;;;8.90;88.80;;;8.34;76.90;99028.69;5048454;28;20431;-83
2021/03/11 02:54:17;;;;;;;14.27;7.38;;;8.90;88.50;;;8.32;76.68;99016.38;5052703;28;20057;-83
2021/03/11 02:56:46;;;;;;;13.02;7.57;;;8.90;88.40;;;8.37;77.18;99000.31;5047107;28;20509;-83
2021/03/11 02:59:15;;;;;;;15.82;7.70;;;8.90;88.50;;;8.41;77.47;99004.28;5052108;28;20041;-83
2021/03/11 03:01:43;;;;;;;15.85;7.05;;;9.00;88.90;;;8.33;77.61;99010.75;5031884;28;20045;-83
2021/03/11 03:04:12;;;;;;;11.30;6.18;;;9.00;88.40;;;8.34;77.51;99000.72;5050424;28;20079;-84
2021/03/11 03:06:40;;;;;;;13.27;7.03;;;9.00;88.30;;;8.33;77.56;99013.44;5049071;28;20053;-83
2021/03/11 03:09:08;;;;;;;12.93;6.80;;;9.10;88.20;;;8.37;77.16;99001.16;5049103;28;20044;-83
2021/03/11 03:11:38;;;;;;;10.32;6.20;;;9.10;88.30;;;8.45;77.01;98996.59;5050347;28;20092;-83
2021/03/11 03:14:08;;;;;;;10.38;6.20;;;9.00;88.50;;;8.41;77.29;98979.88;5043482;28;20057;-83
2021/03/11 03:16:37;;;;;;;11.37;6.30;;;9.10;88.60;;;8.45;77.69;98951.34;5049469;28;20150;-83
2021/03/11 03:19:05;;;;;;;13.25;6.40;;;9.10;88.60;;;8.41;77.31;98942.81;5049158;28;20056;-83
2021/03/11 03:21:32;;;;;;;11.07;5.57;;;9.10;88.50;;;8.43;77.11;98950.72;5050957;28;20052;-83
2021/03/11 03:24:01;;;;;;;12.18;5.70;;;9.10;88.40;;;8.47;77.67;98960.09;5051859;28;20520;-83
2021/03/11 03:26:28;;;;;;;10.45;5.65;;;9.10;88.40;;;8.49;76.99;98966.16;5051136;28;20049;-83
2021/03/11 03:28:54;;;;;;;9.90;5.15;;;9.10;88.50;;;8.48;77.67;98964.50;5049888;28;20091;-83
2021/03/11 03:31:22;;;;;;;9.73;4.72;;;9.10;88.70;;;8.45;78.15;98973.03;5051609;28;20040;-83
2021/03/11 03:33:49;;;;;;;9.05;4.70;;;9.10;88.90;;;8.41;77.94;98956.38;5049388;28;20089;-83
2021/03/11 03:36:17;;;;;;;9.07;5.00;;;9.10;89.00;;;8.44;78.06;98952.41;5048624;28;20411;-83
2021/03/11 03:38:44;;;;;;;9.23;4.47;;;9.10;89.20;;;8.46;78.11;98946.78;5050581;28;20052;-83
2021/03/11 03:41:11;;;;;;;8.63;4.47;;;9.10;89.50;;;8.43;78.75;98956.13;5050536;28;20044;-83
2021/03/11 03:43:42;;;;;;;8.88;4.72;;;9.20;89.30;;;8.47;78.56;98951.97;5049203;28;20127;-84
2021/03/11 03:46:12;;;;;;;9.55;4.60;;;9.10;89.30;;;8.43;78.80;98948.00;5049934;28;20075;-83
2021/03/11 03:48:44;;;;;;;7.20;4.37;;;9.10;89.50;;;8.50;79.27;98945.31;5050018;28;20115;-83
2021/03/11 03:51:13;;;;;;;9.32;4.32;;;9.10;90.00;;;8.50;79.08;98945.31;5043343;28;20284;-83
2021/03/11 03:53:44;;;;;;;7.93;4.28;;;9.10;90.30;;;8.43;80.00;98941.75;5050122;28;20064;-83
2021/03/11 03:56:21;;;;;;;8.65;4.60;;;9.10;90.90;;;8.37;81.06;98936.09;5049186;28;20049;-83
2021/03/11 03:58:50;;;;;;;7.07;4.25;;;9.10;91.30;;;8.38;81.00;98910.66;5050144;28;20044;-83
2021/03/11 04:01:18;;;;;;;9.48;4.20;;;9.10;91.30;;;8.36;81.48;98936.31;5049979;28;20040;-83
2021/03/11 04:03:46;;;;;;;8.77;4.60;;;9.10;91.40;;;8.30;81.76;98942.56;5050261;28;20049;-83
2021/03/11 04:06:14;;;;;;;7.65;4.53;;;9.10;92.00;;;8.32;82.16;98921.50;5047740;28;20049;-83
2021/03/11 04:08:44;;;;;;;8.05;4.60;;;9.10;92.00;;;8.38;81.51;98926.09;5050745;28;20551;-83
2021/03/11 04:11:12;;;;;;;9.25;4.60;;;9.10;92.10;;;8.27;82.55;98915.91;5050825;28;20412;-83
2021/03/11 04:13:40;;;;;;;8.77;4.63;;;9.10;92.20;;;8.32;82.10;98906.09;5049512;28;20182;-83
2021/03/11 04:16:08;;;;;;;8.25;4.82;;;9.10;92.30;;;8.39;81.81;98906.06;5050818;28;20067;-83
2021/03/11 04:18:36;;;;;;;8.05;4.57;;;9.10;92.50;;;8.36;81.84;98892.97;5050960;28;20519;-83
2021/03/11 04:21:06;;;;;;;7.97;4.35;;;9.10;92.50;;;8.40;82.37;98883.34;5050153;28;20484;-83
2021/03/11 04:23:35;;;;;;;8.82;4.53;;;9.10;92.80;;;8.40;82.27;98880.66;5049599;28;20048;-83
2021/03/11 04:26:04;;;;;;;9.43;4.50;;;9.10;92.80;;;8.38;82.30;98872.72;5050054;28;20041;-83
2021/03/11 04:28:31;;;;;;;8.93;4.68;;;9.10;92.70;;;8.38;82.60;98871.91;5050839;28;20071;-83
2021/03/11 04:30:58;;;;;;;8.63;5.25;;;9.10;92.90;;;8.41;82.43;98882.28;5049399;28;20091;-83
2021/03/11 04:33:26;;;;;;;7.60;4.63;;;9.10;92.90;;;8.35;82.26;98872.31;5051513;28;20107;-83
2021/03/11 04:35:54;;;;;;;8.00;4.72;;;9.10;92.80;;;8.42;81.96;98862.31;5049711;28;20036;-83
2021/03/11 04:38:24;;;;;;;8.10;4.67;;;9.10;92.70;;;8.44;82.23;98859.41;5049752;28;20404;-83
2021/03/11 04:40:52;;;;;;;8.40;4.90;;;9.10;92.60;;;8.47;81.45;98859.78;5047542;28;20131;-83
2021/03/11 04:43:20;;;;;;;7.30;4.55;;;9.10;92.50;;;8.50;81.85;98853.94;5049385;28;20117;-84
2021/03/11 04:45:48;;;;;;;8.80;5.03;;;9.10;92.40;;;8.53;81.15;98858.09;5048558;28;20045;-83
2021/03/11 04:48:16;;;;;;;9.10;4.80;;;9.10;92.40;;;8.53;81.21;98858.09;5050289;28;20091;-83
2021/03/11 04:50:45;;;;;;;7.88;4.85;;;9.10;92.30;;;8.48;81.36;98849.81;5046614;28;20040;-83
2021/03/11 04:53:12;;;;;;;9.82;5.28;;;9.20;92.20;;;8.51;80.82;98850.22;5048316;28;20049;-83
2021/03/11 04:55:42;;;;;;;8.35;4.85;;;9.20;92.10;;;8.50;81.43;98842.28;5048367;28;20067;-83
2021/03/11 04:58:09;;;;;;;10.32;5.43;;;9.20;91.90;;;8.56;81.30;98846.84;5048571;28;20045;-83
2021/03/11 05:00:40;;;;;;;8.48;5.40;;;9.20;91.80;;;8.62;80.63;98840.56;5050613;28;20415;-83
2021/03/11 05:03:10;;;;;;;8.70;5.20;;;9.20;91.80;;;8.61;80.91;98839.75;5034664;28;20044;-83
2021/03/11 05:05:40;;;;;;;9.07;5.87;;;9.20;91.90;;;8.63;80.78;98846.84;5050293;28;20049;-83
2021/03/11 05:08:07;;;;;;;8.55;5.07;;;9.20;91.70;;;8.58;80.55;98842.03;5049204;28;20059;-83
2021/03/11 05:10:35;;;;;;;10.65;5.65;;;9.20;91.50;;;8.53;80.35;98839.97;5050025;28;20045;-83
2021/03/11 05:13:03;;;;;;;9.23;5.10;;;9.20;91.40;;;8.53;81.57;98848.13;5050250;28;20049;-84
2021/03/11 05:15:30;;;;;;;9.15;5.40;;;9.20;91.80;;;8.53;81.04;98839.13;5049606;28;20056;-83
2021/03/11 05:17:58;;;;;;;9.15;5.30;;;9.20;91.90;;;8.51;82.14;98847.50;5050654;28;20052;-84
2021/03/11 05:20:26;;;;;;;9.43;5.50;;;9.30;92.10;;;8.58;82.01;98834.72;5047909;28;20049;-83
2021/03/11 05:22:53;;;;;;;9.32;5.55;;;9.20;92.20;;;8.60;81.91;98838.09;5048958;28;20053;-83
2021/03/11 05:25:20;;;;;;;10.65;6.07;;;9.20;92.20;;;8.61;82.00;98850.59;5048598;28;20045;-84
2021/03/11 05:27:48;;;;;;;7.47;4.60;;;9.20;92.50;;;8.63;82.07;98857.69;5049219;28;20407;-83
2021/03/11 05:30:16;;;;;;;9.88;5.75;;;9.20;92.60;;;8.63;81.83;98855.81;5049133;28;20103;-83
2021/03/11 05:32:43;;;;;;;8.85;5.28;;;9.20;92.80;;;8.69;81.34;98856.84;5049158;28;20067;-83
2021/03/11 05:35:12;;;;;;;11.40;5.68;;;9.20;93.30;;;8.72;81.67;98834.69;5049475;28;20060;-83
2021/03/11 05:37:40;;;;;;;8.70;5.22;;;9.20;93.70;;;8.71;82.00;98843.88;5050102;28;20460;-83
2021/03/11 05:40:09;;;;;;;9.55;5.93;;;9.20;94.10;;;8.69;82.38;98835.13;5054359;28;20126;-83
2021/03/11 05:42:38;;;;;;;9.52;5.05;;;9.20;94.20;;;8.65;82.77;98832.00;5053190;28;20041;-83
2021/03/11 05:45:08;;;;;;;9.93;5.70;;;9.20;94.20;;;8.67;82.71;98826.38;5052299;28;20518;-83
2021/03/11 05:47:36;;;;;;;15.02;5.32;;;9.20;94.10;;;8.65;83.16;98828.47;5052949;28;20045;-83
2021/03/11 05:50:06;;;;;;;8.80;4.85;;;9.20;94.10;;;8.67;82.92;98843.47;5044733;28;20080;-83
2021/03/11 05:52:35;;;;;;;11.55;5.88;;;9.20;94.10;;;8.69;82.76;98808.84;5053903;28;20045;-83
2021/03/11 05:55:07;;;;;;;9.15;5.13;;;9.20;94.10;;;8.67;82.62;98801.97;5052630;28;20059;-83
2021/03/11 05:57:38;;;;;;;8.73;5.30;;;9.20;94.20;;;8.71;82.63;98817.59;5053406;28;20045;-83
2021/03/11 06:00:07;;;;;;;8.80;5.43;;;9.20;94.10;;;8.73;82.58;98803.81;5027406;28;20079;-83
2021/03/11 06:02:34;;;;;;;8.15;4.63;;;9.20;94.60;;;8.69;82.78;98802.59;5053875;28;20037;-83
2021/03/11 06:05:01;;;;;;;8.57;4.63;;;9.20;94.60;;;8.65;83.51;98793.22;5053480;28;20044;-83
2021/03/11 06:07:29;;;;;;;8.75;5.03;;;9.20;94.30;;;8.69;82.97;98795.28;5052738;28;20072;-83
2021/03/11 06:10:02;;;;;;;9.27;4.75;;;9.20;94.60;;;8.66;83.54;98805.72;5052408;28;20037;-83
2021/03/11 06:12:29;;;;;;;8.25;4.20;;;9.30;94.90;;;8.66;83.49;98800.31;5053558;28;20127;-83
2021/03/11 06:15:07;;;;;;;7.88;4.70;;;9.30;94.90;;;8.67;83.47;98799.25;5052231;28;20072;-83
2021/03/11 06:17:34;;;;;;;8.45;4.70;;;9.30;95.00;;;8.69;83.76;98799.88;5049447;28;20299;-83
2021/03/11 06:20:01;;;;;;;8.25;4.47;;;9.30;95.00;;;8.69;83.36;98789.84;5040701;28;20052;-84
2021/03/11 06:22:29;;;;;;;7.57;4.45;;;9.30;94.80;;;8.76;83.25;98795.28;5047612;28;20075;-85
2021/03/11 06:24:57;;;;;;;6.70;4.05;;;9.30;95.30;;;8.75;83.33;98804.44;5047353;28;20075;-91
2021/03/11 06:27:24;;;;;;;8.88;5.32;;;9.30;94.90;;;8.70;84.21;98794.25;5041737;28;20041;-86
2021/03/11 06:29:51;;;;;;;9.00;4.63;;;9.30;95.10;;;8.71;83.64;98789.66;5044685;28;20136;-86
2021/03/11 06:32:18;;;;;;;8.93;4.80;;;9.30;95.30;;;8.72;83.51;98777.72;5044698;28;20048;-88
2021/03/11 06:34:45;;;;;;;8.30;4.93;;;9.30;95.20;;;8.76;83.88;98793.38;5046718;28;20052;-87
2021/03/11 06:37:13;;;;;;;9.13;4.78;;;9.30;95.20;;;8.78;83.91;98782.31;5047430;28;20045;-87
2021/03/11 06:39:43;;;;;;;9.23;5.60;;;9.30;95.40;;;8.70;84.35;98788.81;5046694;28;20053;-88
2021/03/11 06:42:11;;;;;;;7.05;4.53;;;9.40;95.40;;;8.76;84.64;98771.69;5047678;28;20045;-87
2021/03/11 06:44:40;;;;;;;7.05;4.40;;;9.40;95.40;;;8.74;84.73;98762.09;4984187;28;20049;-87
2021/03/11 06:47:09;;;;;;;8.68;5.22;;;9.40;95.70;;;8.73;84.92;98774.00;5027295;28;20378;-87
2021/03/11 06:49:36;;;;;;;9.60;4.95;;;9.40;95.50;;;8.78;84.84;98758.72;5026780;28;20037;-87
2021/03/11 06:52:13;;;;;;;8.63;5.13;;;9.40;95.10;;;8.80;84.56;98763.94;5026862;28;20535;-88
2021/03/11 06:55:03;;;;;;;8.25;4.90;;;9.50;95.40;;;8.85;83.78;98766.81;5026244;28;20042;-88
2021/03/11 06:57:33;;;;;;;10.00;5.15;;;9.50;95.00;;;8.87;84.32;98761.19;5025889;28;20045;-87
2021/03/11 07:00:01;;;;;;;9.00;4.72;;;9.50;95.20;;;8.86;84.18;98741.38;5041297;28;20053;-87
2021/03/11 07:02:29;;;;;;;9.55;5.43;;;9.50;95.20;;;8.87;84.28;98744.91;5044526;28;20352;-86
2021/03/11 07:05:20;;;;;;;10.52;5.38;;;9.50;94.80;;;8.91;84.14;98729.84;5045524;28;20104;-87
2021/03/11 07:07:48;;;;;;;10.50;6.15;;;9.60;95.00;;;8.87;84.48;98726.78;5029266;28;20045;-88
2021/03/11 07:10:31;;;;;;;9.10;5.90;;;9.60;94.60;;;8.92;83.80;98726.94;5047030;28;20045;-86
2021/03/11 07:13:38;;;;;;;10.75;5.45;;;9.60;95.10;;;8.87;84.19;98721.34;5046983;28;20121;-85
2021/03/11 07:16:13;;;;;;;10.23;5.10;;;9.60;95.20;;;8.90;84.61;98710.03;5046867;28;20058;-84
2021/03/11 07:18:41;;;;;;;11.18;5.15;;;9.60;94.60;;;8.91;84.84;98713.59;5033098;28;20072;-85
2021/03/11 07:21:08;;;;;;;8.63;5.25;;;9.70;94.90;;;8.96;84.02;98706.44;5050532;28;21009;-85
2021/03/11 07:23:59;;;;;;;10.02;5.10;;;9.70;95.10;;;8.96;84.21;98703.72;5049667;28;20403;-85
2021/03/11 07:26:26;;;;;;;;;;;9.70;95.30;;;9.00;84.17;98702.28;5044214;28;20097;-86
2021/03/11 07:29:13;;;;;;;8.63;5.05;;;9.70;95.20;;;8.99;84.78;98684.31;5040462;28;19932;-86
2021/03/11 07:31:41;;;;;;;9.80;5.22;;;9.80;95.00;;;9.02;84.47;98685.75;5037563;28;20095;-86
2021/03/11 07:34:09;;;;;;;9.98;5.50;;;9.80;95.30;;;8.99;84.95;98678.91;5047116;28;20051;-86
2021/03/11 07:36:36;;;;;;;9.68;4.82;;;9.80;94.80;;;9.02;85.06;98693.06;5028575;28;20038;-85
2021/03/11 07:39:04;;;;;;;9.40;5.70;;;9.90;95.40;;;9.03;85.90;98702.88;5040423;28;20054;-85
2021/03/11 07:41:30;;;;;;;11.13;5.95;;;9.90;95.70;;;9.04;85.89;98708.06;5039335;28;20064;-85
2021/03/11 07:43:59;;;;;;;10.90;5.80;;;9.90;95.40;;;9.05;86.09;98715.16;5030047;28;20389;-85
2021/03/11 07:46:26;;;;;;;12.35;5.97;;;9.90;96.10;;;9.08;85.96;98686.75;5043603;28;20075;-85
2021/03/11 07:48:54;;;;;;;11.65;7.03;;;9.90;95.70;;;9.09;86.78;98710.13;5045401;28;20077;-85
2021/03/11 07:51:23;;;;;;;10.80;6.80;;;9.90;95.80;;;9.10;86.50;98695.50;5046121;28;20041;-85
2021/03/11 07:53:50;;;;;;;10.98;5.82;;;10.00;95.60;;;9.10;86.94;98701.78;5045843;28;20041;-85
2021/03/11 07:56:18;;;;;;;9.05;5.38;;;10.00;95.80;;;9.14;87.06;98685.91;5039751;28;20044;-85
2021/03/11 07:58:46;;;;;;;12.15;6.20;;;10.10;96.10;;;9.15;88.45;98692.97;5044880;28;20048;-85
2021/03/11 08:01:16;;;;;;;11.30;5.63;;;10.20;96.20;;;9.19;88.68;98686.03;5045473;28;20052;-86
2021/03/11 08:03:49;;;;;;;9.85;5.00;;;10.30;97.00;;;9.22;89.00;98690.22;5047297;28;20427;-83
2021/03/11 08:06:25;;;;;;;10.13;5.35;;;10.40;97.00;;;9.26;89.43;98678.69;5045979;28;20052;-83
2021/03/11 08:08:53;;;;;;;12.02;5.10;;;10.50;96.90;;;9.32;89.26;98669.66;5047365;28;20485;-82
2021/03/11 08:11:35;;;;;;;8.15;5.05;;;10.50;96.90;;;9.39;89.44;98666.88;5049217;28;20041;-82
2021/03/11 08:14:20;;;;;;;10.15;4.38;;;10.70;96.50;;;9.41;89.57;98659.34;5048228;28;20570;-82
2021/03/11 08:16:49;;;;;;;10.38;5.03;;;10.70;96.50;;;9.45;89.92;98654.31;5048194;28;20041;-83
2021/03/11 08:19:50;;;;;;;12.05;5.43;;;10.80;96.30;;;9.48;89.17;98659.28;5051287;28;20045;-82
2021/03/11 08:23:03;;;;;;;9.18;4.57;;;10.80;96.00;;;9.51;89.62;98637.94;4970528;28;20053;-83
2021/03/11 08:26:07;;;;;;;8.23;3.28;;;10.90;96.10;;;9.55;88.94;98641.88;5036810;28;20041;-82
2021/03/11 08:28:43;;;;;;;10.15;4.35;;;11.00;95.00;;;9.57;89.04;98628.06;5042920;28;20129;-83
2021/03/11 08:31:10;;;;;;;10.20;4.53;;;10.90;95.10;;;9.58;89.01;98635.19;5041290;28;20048;-83
2021/03/11 08:33:56;;;;;;;13.35;4.68;;;10.90;95.30;;;9.59;88.64;98636.81;5043553;28;20057;-82
2021/03/11 08:36:38;;;;;;;9.80;4.45;;;10.90;95.40;;;9.62;88.89;98630.13;5042026;28;20052;-82
2021/03/11 08:39:30;;;;;;;7.78;4.35;;;10.90;95.50;;;9.64;88.50;98636.16;5038772;28;20057;-82
2021/03/11 08:41:57;;;;;;;10.25;4.65;;;10.90;95.50;;;9.67;88.56;98631.13;5039624;28;20044;-82
2021/03/11 08:44:45;;;;;;;12.38;4.63;;;10.90;95.10;;;9.70;88.03;98625.22;5047242;28;20503;-83
2021/03/11 08:47:13;;;;;;;10.57;4.18;;;11.00;95.00;;;9.72;88.26;98603.25;5046873;28;20083;-84
2021/03/11 08:49:45;;;;;;;10.38;4.05;;;11.00;94.80;;;9.75;88.28;98619.94;5046986;28;20064;-82
2021/03/11 08:52:41;;;;;;;;;;;11.00;94.90;;;9.75;88.31;98606.34;5045437;28;20076;-83
2021/03/11 08:55:41;;;;;;;9.52;4.40;;;11.10;94.60;;;9.76;88.48;98585.44;5042159;28;20423;-83
2021/03/11 08:58:27;;;;;;;11.45;3.90;;;11.10;94.80;;;9.78;88.60;98577.91;4990934;28;20056;-83
2021/03/11 09:01:05;;;;;;;11.15;3.50;;;11.20;94.80;;;9.81;88.56;98582.06;4978546;28;20041;-83
2021/03/11 09:03:43;;;;;;;12.38;3.50;;;11.30;94.30;;;9.87;88.70;98559.41;5029511;28;20060;-82
2021/03/11 09:06:12;;;;;;;7.45;3.13;;;11.40;93.60;;;9.90;87.73;98569.81;5031033;28;20069;-83
2021/03/11 09:08:57;;;;;;;12.27;3.35;;;11.50;92.80;;;9.93;86.54;98563.94;5038294;28;20046;-83
2021/03/11 09:11:25;;;;;;;11.88;3.28;;;11.60;91.70;;;10.00;85.61;98555.69;5045145;28;20060;-83
2021/03/11 09:13:54;;;;;;;12.35;3.63;;;11.70;90.40;;;10.04;85.65;98544.13;5041876;28;20041;-83
2021/03/11 09:16:25;;;;;;;12.43;3.17;;;11.70;90.00;;;10.07;85.06;98554.56;5040242;28;20504;-82
2021/03/11 09:18:55;;;;;;;;;;;11.80;89.40;;;10.09;84.19;98541.56;5045601;28;20037;-83
2021/03/11 09:21:32;;;;;;;8.27;2.28;;;11.90;88.00;;;10.12;83.51;98562.81;5049552;28;19925;-83
2021/03/11 09:23:59;;;;;;;13.95;2.17;;;11.80;87.60;;;10.10;82.78;98564.13;5012594;28;20042;-83
2021/03/11 09:26:27;;;;;;;7.97;2.25;;;11.80;87.00;;;10.11;83.05;98588.38;5028508;28;20139;-83
2021/03/11 09:28:55;;;;;;;6.93;2.05;;;11.70;87.70;;;10.09;81.71;98576.03;5032233;28;20041;-83
2021/03/11 09:31:24;;;;;;;10.05;2.00;;;11.60;87.30;;;10.06;82.16;98580.06;5049914;28;20049;-83
2021/03/11 09:33:51;;;;;;;9.05;2.10;;;11.60;87.50;;;10.07;82.29;98579.03;5048532;28;20051;-83
2021/03/11 09:36:18;;;;;;;7.97;2.20;;;11.50;87.70;;;10.05;82.73;98567.53;5048007;28;20052;-83
2021/03/11 09:38:48;;;;;;;15.50;2.35;;;11.50;88.20;;;10.08;82.35;98545.31;5049036;28;20462;-83
2021/03/11 09:41:24;;;;;;;10.98;2.17;;;11.50;88.20;;;10.09;82.20;98530.69;5048792;28;20580;-83
2021/03/11 09:43:51;;;;;;;14.45;2.42;;;11.50;88.10;;;10.07;81.90;98557.28;5048838;28;20053;-83
2021/03/11 09:46:20;;;;;;;12.40;1.83;;;11.50;87.50;;;10.04;79.71;98555.00;5048269;28;20055;-82
2021/03/11 09:48:48;;;;;;;10.00;2.00;;;11.50;85.30;;;10.06;79.77;98579.25;5050271;28;20045;-82
2021/03/11 09:51:18;;;;;;;10.73;2.40;;;11.50;86.20;;;10.06;79.23;98552.88;5049934;28;20052;-83
2021/03/11 09:53:48;;;;;;;14.45;2.67;;;11.50;85.10;;;10.09;79.02;98557.03;5049148;28;20057;-82
2021/03/11 09:56:19;;;;;;;13.30;2.22;;;11.50;85.60;;;10.07;79.49;98526.53;5047781;28;20094;-83
2021/03/11 09:58:50;;;;;;;13.25;2.17;;;11.50;85.30;;;10.11;79.12;98538.59;5032431;28;20049;-82
2021/03/11 10:01:27;;;;;;;11.55;2.22;;;11.60;84.80;;;10.17;79.38;98535.78;5050078;28;20040;-82
2021/03/11 10:03:54;;;;;;;15.35;2.30;;;11.70;84.90;;;10.24;80.21;98537.59;5048295;28;20064;-83
2021/03/11 10:06:23;;;;;;;13.65;2.17;;;11.80;85.40;;;10.29;79.79;98529.56;5042941;28;20049;-82
2021/03/11 10:09:10;;;;;;;14.88;2.20;;;11.80;85.20;;;10.35;78.78;98531.38;5044383;28;20052;-83
2021/03/11 10:11:45;;;;;;;13.93;2.63;;;11.90;84.50;;;10.43;79.43;98535.66;5045811;28;20045;-83
2021/03/11 10:14:22;;;;;;;12.00;1.98;;;11.90;85.10;;;10.47;79.08;98521.38;5049201;28;20033;-83
2021/03/11 10:16:51;;;;;;;16.20;2.92;;;12.00;84.70;;;10.52;78.53;98513.34;5047519;28;20045;-83
2021/03/11 10:19:20;;;;;;;16.60;2.63;;;12.00;84.10;;;10.57;77.96;98502.59;5049143;28;20082;-88
2021/03/11 10:22:05;;;;;;;16.50;2.97;;;12.10;83.80;;;10.67;77.78;98542.00;5048898;28;20127;-83
2021/03/11 10:24:38;;;;;;;18.38;2.90;;;12.10;83.60;;;10.72;76.68;98520.38;5045740;28;20103;-87
2021/03/11 10:27:17;;;;;;;17.80;2.78;;;12.20;82.40;;;10.77;76.96;98525.91;5030461;28;20048;-88
2021/03/11 10:29:45;;;;;;;13.68;2.67;;;12.20;82.30;;;10.81;76.76;98527.09;5046832;28;20053;-87
2021/03/11 10:32:12;;;;;;;21.30;3.05;;;12.30;82.90;;;10.84;77.54;98526.63;5046773;28;20068;-87
2021/03/11 10:34:47;;;;;;;17.48;3.53;;;12.30;83.10;;;10.85;77.86;98522.00;5046913;28;20064;-83
2021/03/11 10:37:28;;;;;;;17.10;3.35;;;12.40;82.90;;;10.92;76.93;98529.00;5046430;28;20045;-82
2021/03/11 10:40:03;;;;;;;22.60;3.03;;;12.50;81.90;;;10.99;76.60;98538.97;5044181;28;20492;-86
2021/03/11 10:42:44;;;;;;;15.90;3.03;;;12.60;81.70;;;11.02;74.66;98527.56;5047762;28;20044;-86